Hlavní strana
METAR-TAF:

METAR-TAF

Letiště :

Kajaani, Finsko

zeměpisná šířka: 64-17N, zeměpisná délka: 027-41E, výška: 143 m

Aktuální stav počasí

Zpráva byla vytvořena před 20 minutami, v 02:50 UTC
Jihozápadní vítr 11 kt
Teplota 0°C
Vlhkost vzduchu 69%
Tlak 990 hPa
Viditelnost 10 km a více
Žádná oblačnost pod 1500 m, nevyskytují se cumulonimby.

METAR: EFKI 240250Z AUTO 23011KT CAVOK M00/M05 Q0990

Čas: 05:10 (03:10 UTC)

Předpověď počasí

Zpráva byla vytvořena před 12 hodinami a 42 minutami, v 14:28 UTC
Předpověď platná od 23 v 15 UTC do 23 v 18 UTC
Západojihozápadní vítr 13 kt
Viditelnost 10 km a více
Oblačno až skoro zataženo ve výšce 800 ft
slabý déšť
Změna
od 23 v 15 UTC do 23 v 17 UTC
Viditelnost 10 km a více
Žádná oblačnost pod 1500 m, nevyskytují se cumulonimby.

TAF: EFKI 231428Z 2315/2318 24013KT 9999 -RA BKN008 BECMG 2315/2317 CAVOK

Stav a předpovědi počasí z více než 4 000 letišť (zprávy METAR a TAF).

Červené a žluté tečky na mapě představují dostupné meteorologické stanice.

Když kurzor umístíte na tečku, zobrazí se název stanice.

Pak kliknutím zobrazíte stav a předpověď počasí.

Chcete-li změnit mapu, kliknutím na zelené tlačítko se znaménkem +mapu přiblížíte, kliknutím na zelené tlačítko se znaménkem – mapu oddálíte a kliknutím na zelené šipky přejdete na sousední mapy.


METAR-TAF: